Time;durP1;ratioP1;P1;durP2;ratioP2;P2;SDS_P1;SDS_P2;PMS_P1;PMS_P2;Temp;Humidity;BMP_temperature;BMP_pressure;BME280_temperature;BME280_humidity;BME280_pressure;Samples;Min_cycle;Max_cycle;Signal;HPM_P1;HPM_P2
2022/06/22 00:00:18;;;;;;;;;12.33;12.00;;;;;;;;4896995;29;45573;-72
2022/06/22 00:02:44;;;;;;;;;11.67;11.67;;;;;;;;4881400;29;48006;-72
2022/06/22 00:05:38;;;;;;;;;15.33;14.00;;;;;;;;4890000;29;45342;-72
2022/06/22 00:08:06;;;;;;;;;10.33;10.33;;;;;;;;4883567;28;45627;-72
2022/06/22 00:10:48;;;;;;;;;14.67;12.00;;;;;;;;4893672;29;46963;-72
2022/06/22 00:13:15;;;;;;;;;9.33;9.33;;;;;;;;4882298;29;48047;-72
2022/06/22 00:15:46;;;;;;;;;12.67;11.33;;;;;;;;4885079;29;45277;-72
2022/06/22 00:18:30;;;;;;;;;11.33;10.33;;;;;;;;4883370;29;45331;-71
2022/06/22 00:20:57;;;;;;;;;10.00;10.00;;;;;;;;4897085;28;45923;-71
2022/06/22 00:23:34;;;;;;;;;12.33;11.00;;;;;;;;4881380;29;46329;-72
2022/06/22 00:26:15;;;;;;;;;13.00;11.33;;;;;;;;4893128;29;45538;-71
2022/06/22 00:28:59;;;;;;;;;10.00;10.00;;;;;;;;4888785;29;45540;-72
2022/06/22 00:31:34;;;;;;;;;13.33;11.00;;;;;;;;4876108;29;45302;-72
2022/06/22 00:34:04;;;;;;;;;13.33;10.67;;;;;;;;4888427;29;46558;-71
2022/06/22 00:36:38;;;;;;;;;9.67;9.67;;;;;;;;4892039;29;45742;-71
2022/06/22 00:39:24;;;;;;;;;11.67;10.00;;;;;;;;4894466;29;45487;-71
2022/06/22 00:41:49;;;;;;;;;13.67;10.00;;;;;;;;4885802;28;45569;-71
2022/06/22 00:44:16;;;;;;;;;13.33;12.00;;;;;;;;4882354;29;46098;-71
2022/06/22 00:46:43;;;;;;;;;12.33;8.00;;;;;;;;4880830;29;45371;-71
2022/06/22 00:49:10;;;;;;;;;10.67;10.00;;;;;;;;4885179;29;45278;-71
2022/06/22 00:51:37;;;;;;;;;11.67;10.67;;;;;;;;4884489;29;46127;-70
2022/06/22 00:54:09;;;;;;;;;11.67;11.00;;;;;;;;4888502;29;45666;-72
2022/06/22 00:56:57;;;;;;;;;13.33;11.00;;;;;;;;4891154;29;45495;-72
2022/06/22 00:59:35;;;;;;;;;12.00;11.00;;;;;;;;4887920;29;45301;-72
2022/06/22 01:02:00;;;;;;;;;14.00;12.67;;;;;;;;4894331;29;45537;-72
2022/06/22 01:04:34;;;;;;;;;12.67;11.00;;;;;;;;4892911;29;45366;-72
2022/06/22 01:07:02;;;;;;;;;13.33;11.33;;;;;;;;4883122;29;45402;-72
2022/06/22 01:09:30;;;;;;;;;13.33;12.67;;;;;;;;4882707;29;45332;-72
2022/06/22 01:12:18;;;;;;;;;11.67;11.67;;;;;;;;4888572;28;45911;-72
2022/06/22 01:14:43;;;;;;;;;13.00;11.00;;;;;;;;4889900;29;46647;-73
2022/06/22 01:17:15;;;;;;;;;12.67;11.67;;;;;;;;4886428;28;45417;-73
2022/06/22 01:19:50;;;;;;;;;12.33;11.00;;;;;;;;4878064;29;45479;-71
2022/06/22 01:22:32;;;;;;;;;13.33;12.33;;;;;;;;4883093;29;46969;-71
2022/06/22 01:25:00;;;;;;;;;13.00;13.00;;;;;;;;4889167;29;46700;-71
2022/06/22 01:27:31;;;;;;;;;13.67;13.67;;;;;;;;4882261;29;45404;-72
2022/06/22 01:29:58;;;;;;;;;11.00;11.00;;;;;;;;4882735;28;45309;-72
2022/06/22 01:32:26;;;;;;;;;15.33;13.67;;;;;;;;4881749;29;45410;-72
2022/06/22 01:34:54;;;;;;;;;13.67;11.00;;;;;;;;4896791;29;45348;-71
2022/06/22 01:37:25;;;;;;;;;12.00;10.33;;;;;;;;4887381;28;45374;-71
2022/06/22 01:39:51;;;;;;;;;13.00;11.00;;;;;;;;4890650;28;45272;-71
2022/06/22 01:42:24;;;;;;;;;13.00;13.00;;;;;;;;4887481;29;46451;-72
2022/06/22 01:45:10;;;;;;;;;14.00;14.00;;;;;;;;4884206;29;45352;-72
2022/06/22 01:47:45;;;;;;;;;15.00;13.00;;;;;;;;4879278;29;45551;-72
2022/06/22 01:50:13;;;;;;;;;15.00;12.33;;;;;;;;4889892;29;45486;-72
2022/06/22 01:52:57;;;;;;;;;15.33;14.33;;;;;;;;4888628;29;45519;-72
2022/06/22 01:55:29;;;;;;;;;12.33;11.00;;;;;;;;4895416;29;45507;-72
2022/06/22 01:58:15;;;;;;;;;15.00;13.67;;;;;;;;4886475;29;45334;-72
2022/06/22 02:00:42;;;;;;;;;14.00;13.00;;;;;;;;4896150;28;45242;-71
2022/06/22 02:03:10;;;;;;;;;16.00;15.00;;;;;;;;4880522;29;45645;-72
2022/06/22 02:05:46;;;;;;;;;13.00;12.00;;;;;;;;4890504;29;46631;-72
2022/06/22 02:08:17;;;;;;;;;15.67;13.67;;;;;;;;4886014;29;45392;-72
2022/06/22 02:10:55;;;;;;;;;13.33;12.00;;;;;;;;4893061;29;45361;-72
2022/06/22 02:13:38;;;;;;;;;11.67;11.67;;;;;;;;4882368;29;45360;-71
2022/06/22 02:16:13;;;;;;;;;14.00;13.00;;;;;;;;4893039;29;46038;-72
2022/06/22 02:18:42;;;;;;;;;15.33;15.33;;;;;;;;4874295;29;45431;-72
2022/06/22 02:21:16;;;;;;;;;16.00;13.00;;;;;;;;4880321;29;45559;-72
2022/06/22 02:23:41;;;;;;;;;14.00;13.00;;;;;;;;4875924;29;45408;-72
2022/06/22 02:26:10;;;;;;;;;10.67;10.67;;;;;;;;4894157;29;46359;-72
2022/06/22 02:28:35;;;;;;;;;13.33;13.33;;;;;;;;4877809;29;45305;-72
2022/06/22 02:31:01;;;;;;;;;14.00;13.00;;;;;;;;4884187;29;45291;-72
2022/06/22 02:33:26;;;;;;;;;13.00;13.00;;;;;;;;4884008;29;45313;-72
2022/06/22 02:35:52;;;;;;;;;13.33;12.33;;;;;;;;4889800;29;45470;-72
2022/06/22 02:38:18;;;;;;;;;12.33;10.33;;;;;;;;4880690;29;45324;-72
2022/06/22 02:46:17;;;;;;;;;15.33;14.33;;;;;;;;4879894;29;45814;-73
2022/06/22 02:48:45;;;;;;;;;17.33;13.00;;;;;;;;4883958;29;45313;-72
2022/06/22 02:51:17;;;;;;;;;11.67;11.67;;;;;;;;4896371;28;45455;-72
2022/06/22 02:53:43;;;;;;;;;14.00;13.67;;;;;;;;4884984;29;45395;-71
2022/06/22 02:56:16;;;;;;;;;12.33;12.00;;;;;;;;4890640;29;46453;-72
2022/06/22 02:58:41;;;;;;;;;14.33;13.00;;;;;;;;4876341;29;45410;-72
2022/06/22 03:01:06;;;;;;;;;12.00;11.67;;;;;;;;4893319;29;45241;-72
2022/06/22 03:03:33;;;;;;;;;16.33;15.33;;;;;;;;4882122;29;45366;-72
2022/06/22 03:05:59;;;;;;;;;16.00;14.67;;;;;;;;4878151;29;47056;-72
2022/06/22 03:08:24;;;;;;;;;11.67;11.67;;;;;;;;4883342;29;45785;-72
2022/06/22 03:10:52;;;;;;;;;15.00;14.00;;;;;;;;4892519;29;45222;-72
2022/06/22 03:13:24;;;;;;;;;16.00;15.00;;;;;;;;4877899;29;46061;-71
2022/06/22 03:15:49;;;;;;;;;12.33;11.67;;;;;;;;4895546;29;45642;-72
2022/06/22 03:18:18;;;;;;;;;18.67;16.33;;;;;;;;4899246;28;46409;-72
2022/06/22 03:20:49;;;;;;;;;13.00;12.33;;;;;;;;4897957;29;45330;-72
2022/06/22 03:23:18;;;;;;;;;18.00;17.00;;;;;;;;4884948;29;45189;-72
2022/06/22 03:25:49;;;;;;;;;19.00;16.00;;;;;;;;4897902;29;47594;-71
2022/06/22 03:28:21;;;;;;;;;17.67;17.00;;;;;;;;4892474;28;46266;-72
2022/06/22 03:30:56;;;;;;;;;15.00;15.00;;;;;;;;4884413;29;45276;-71
2022/06/22 03:33:30;;;;;;;;;12.67;12.33;;;;;;;;4880768;29;45313;-71
2022/06/22 03:35:59;;;;;;;;;13.33;12.67;;;;;;;;4887603;29;46697;-72
2022/06/22 03:38:27;;;;;;;;;16.00;16.00;;;;;;;;4881546;29;45306;-71
2022/06/22 03:40:55;;;;;;;;;14.67;14.00;;;;;;;;4890971;29;45517;-71
2022/06/22 03:43:27;;;;;;;;;15.00;15.00;;;;;;;;4882792;29;46282;-71
2022/06/22 03:46:13;;;;;;;;;17.33;15.67;;;;;;;;4896484;29;45478;-70
2022/06/22 03:48:46;;;;;;;;;21.33;18.67;;;;;;;;4880180;29;45540;-71
2022/06/22 03:51:11;;;;;;;;;16.00;15.00;;;;;;;;4896282;29;45462;-71
2022/06/22 03:53:43;;;;;;;;;15.67;14.67;;;;;;;;4886205;29;45402;-71
2022/06/22 03:56:12;;;;;;;;;14.00;12.00;;;;;;;;4897704;28;45792;-72
2022/06/22 03:58:41;;;;;;;;;16.67;13.67;;;;;;;;4890522;29;45272;-71
2022/06/22 04:01:06;;;;;;;;;15.33;13.67;;;;;;;;4892971;28;45431;-72
2022/06/22 04:03:31;;;;;;;;;16.67;14.67;;;;;;;;4884242;29;46490;-71
2022/06/22 04:05:58;;;;;;;;;15.67;15.00;;;;;;;;4890341;28;46366;-71
2022/06/22 04:08:28;;;;;;;;;18.00;15.00;;;;;;;;4885034;29;45252;-71
2022/06/22 04:10:58;;;;;;;;;13.67;13.67;;;;;;;;4891591;29;45352;-72
2022/06/22 04:13:30;;;;;;;;;20.00;15.33;;;;;;;;4887467;29;45434;-71
2022/06/22 04:16:17;;;;;;;;;21.00;18.33;;;;;;;;4893432;29;46049;-71
2022/06/22 04:18:46;;;;;;;;;21.33;18.33;;;;;;;;4876371;29;45253;-71
2022/06/22 04:21:13;;;;;;;;;16.67;15.33;;;;;;;;4887539;29;45500;-71
2022/06/22 04:23:50;;;;;;;;;17.00;16.33;;;;;;;;4883189;29;45452;-71
2022/06/22 04:26:26;;;;;;;;;18.00;15.00;;;;;;;;4889469;29;46515;-71
2022/06/22 04:28:55;;;;;;;;;17.67;16.67;;;;;;;;4885526;29;45334;-71
2022/06/22 04:31:22;;;;;;;;;18.33;17.00;;;;;;;;4877900;29;45225;-72
2022/06/22 04:33:51;;;;;;;;;18.00;16.50;;;;;;;;4887398;29;45411;-71
2022/06/22 04:36:23;;;;;;;;;17.33;15.00;;;;;;;;4895716;28;45537;-71
2022/06/22 04:39:00;;;;;;;;;19.00;18.33;;;;;;;;4889616;29;45435;-71
2022/06/22 04:41:27;;;;;;;;;16.33;14.33;;;;;;;;4894649;29;45513;-71
2022/06/22 04:43:54;;;;;;;;;16.33;15.00;;;;;;;;4892621;29;45496;-71
2022/06/22 04:46:22;;;;;;;;;19.67;14.67;;;;;;;;4893216;28;46708;-71
2022/06/22 04:48:49;;;;;;;;;15.00;15.00;;;;;;;;4879144;29;45528;-72
2022/06/22 04:51:20;;;;;;;;;19.00;16.33;;;;;;;;4884088;29;45363;-71
2022/06/22 04:53:48;;;;;;;;;16.00;15.33;;;;;;;;4883919;29;45343;-71
2022/06/22 04:56:16;;;;;;;;;16.33;15.67;;;;;;;;4890447;29;45440;-71
2022/06/22 04:58:51;;;;;;;;;20.33;16.00;;;;;;;;4887313;29;45535;-71
2022/06/22 05:01:24;;;;;;;;;16.00;15.00;;;;;;;;4893382;28;45488;-71
2022/06/22 05:03:51;;;;;;;;;16.33;16.00;;;;;;;;4881369;29;45945;-71
2022/06/22 05:06:37;;;;;;;;;17.00;15.33;;;;;;;;4886874;29;46452;-71
2022/06/22 05:09:10;;;;;;;;;21.67;16.33;;;;;;;;4881018;29;45293;-71
2022/06/22 05:11:40;;;;;;;;;21.00;18.00;;;;;;;;4890696;29;45483;-71
2022/06/22 05:14:12;;;;;;;;;21.00;18.00;;;;;;;;4884699;29;45453;-71
2022/06/22 05:16:38;;;;;;;;;18.00;16.00;;;;;;;;4889590;29;48378;-71
2022/06/22 05:19:03;;;;;;;;;20.00;16.67;;;;;;;;4885059;29;45230;-71
2022/06/22 05:21:39;;;;;;;;;20.67;15.67;;;;;;;;4892584;29;46019;-71
2022/06/22 05:24:10;;;;;;;;;19.00;16.33;;;;;;;;4887217;29;45547;-72
2022/06/22 05:26:36;;;;;;;;;21.00;17.00;;;;;;;;4893968;28;45360;-70
2022/06/22 05:29:04;;;;;;;;;18.67;17.67;;;;;;;;4875360;29;45431;-71
2022/06/22 05:31:31;;;;;;;;;16.67;15.33;;;;;;;;4883285;29;45332;-72
2022/06/22 05:33:59;;;;;;;;;17.67;15.33;;;;;;;;4877953;29;45768;-71
2022/06/22 05:36:26;;;;;;;;;17.33;17.00;;;;;;;;4889020;28;45571;-72
2022/06/22 05:38:53;;;;;;;;;17.33;16.67;;;;;;;;4901996;28;45475;-71
2022/06/22 05:41:21;;;;;;;;;13.67;12.67;;;;;;;;4894281;28;45314;-70
2022/06/22 05:43:47;;;;;;;;;18.67;17.00;;;;;;;;4876382;29;45275;-72
2022/06/22 05:46:13;;;;;;;;;20.00;17.67;;;;;;;;4893747;29;45575;-72
2022/06/22 05:48:40;;;;;;;;;19.00;17.33;;;;;;;;4884209;29;45489;-71
2022/06/22 05:51:15;;;;;;;;;19.67;15.67;;;;;;;;4895967;28;45324;-71
2022/06/22 05:53:53;;;;;;;;;20.67;15.67;;;;;;;;4888381;29;45576;-69
2022/06/22 05:56:24;;;;;;;;;15.00;12.33;;;;;;;;4895508;29;45515;-70
2022/06/22 05:58:55;;;;;;;;;15.33;14.00;;;;;;;;4905922;28;45495;-70
2022/06/22 06:01:24;;;;;;;;;17.33;17.33;;;;;;;;4888994;28;45467;-70
2022/06/22 06:03:58;;;;;;;;;18.33;16.33;;;;;;;;4882265;29;46364;-70
2022/06/22 06:06:26;;;;;;;;;18.67;15.67;;;;;;;;4885519;29;46216;-71
2022/06/22 06:09:00;;;;;;;;;20.67;20.67;;;;;;;;4876834;29;45449;-70
2022/06/22 06:11:28;;;;;;;;;17.00;16.67;;;;;;;;4893643;29;45408;-71
2022/06/22 06:14:04;;;;;;;;;16.67;15.00;;;;;;;;4881967;29;45664;-70
2022/06/22 06:16:42;;;;;;;;;20.33;18.00;;;;;;;;4887805;29;45646;-70
2022/06/22 06:19:08;;;;;;;;;22.33;19.00;;;;;;;;4891230;29;45321;-71
2022/06/22 06:21:36;;;;;;;;;23.33;18.67;;;;;;;;4895419;29;45320;-71
2022/06/22 06:24:15;;;;;;;;;19.67;18.33;;;;;;;;4899582;28;45328;-71
2022/06/22 06:29:58;;;;;;;;;25.67;18.67;;;;;;;;4896080;29;45438;-71
2022/06/22 06:32:43;;;;;;;;;21.33;17.67;;;;;;;;4885738;29;45544;-71
2022/06/22 06:35:17;;;;;;;;;19.33;19.33;;;;;;;;4901668;28;45346;-71
2022/06/22 06:37:44;;;;;;;;;21.00;19.00;;;;;;;;4890863;29;45589;-70
2022/06/22 06:40:11;;;;;;;;;18.33;17.00;;;;;;;;4893488;28;45335;-70
2022/06/22 06:42:40;;;;;;;;;17.00;15.33;;;;;;;;4888624;29;45341;-70
2022/06/22 06:45:11;;;;;;;;;15.67;15.67;;;;;;;;4887586;29;45316;-71
2022/06/22 06:47:37;;;;;;;;;21.00;19.00;;;;;;;;4879937;29;45379;-70
2022/06/22 06:50:02;;;;;;;;;18.33;18.33;;;;;;;;4888852;29;45213;-71
2022/06/22 06:52:27;;;;;;;;;21.67;20.67;;;;;;;;4889242;29;45476;-70
2022/06/22 06:54:59;;;;;;;;;22.00;18.67;;;;;;;;4895571;29;45251;-70
2022/06/22 06:57:24;;;;;;;;;26.00;16.33;;;;;;;;4886698;29;47298;-71
2022/06/22 06:59:53;;;;;;;;;20.00;15.67;;;;;;;;4894887;29;45369;-71
2022/06/22 07:02:27;;;;;;;;;17.33;15.33;;;;;;;;4878837;28;45342;-70
2022/06/22 07:04:52;;;;;;;;;21.33;18.00;;;;;;;;4881977;29;45274;-70
2022/06/22 07:07:31;;;;;;;;;17.33;17.33;;;;;;;;4880798;29;46462;-71
2022/06/22 07:09:57;;;;;;;;;19.67;19.00;;;;;;;;4886126;29;45548;-70
2022/06/22 07:12:23;;;;;;;;;17.33;17.33;;;;;;;;4876203;28;45427;-70
2022/06/22 07:14:48;;;;;;;;;21.33;20.67;;;;;;;;4887175;29;45321;-70
2022/06/22 07:17:15;;;;;;;;;20.33;18.00;;;;;;;;4876525;29;46786;-71
2022/06/22 07:19:43;;;;;;;;;21.67;19.00;;;;;;;;4888337;29;45484;-70
2022/06/22 07:22:18;;;;;;;;;21.33;17.67;;;;;;;;4881917;29;45521;-70
2022/06/22 07:24:46;;;;;;;;;18.67;15.67;;;;;;;;4892509;29;45383;-70
2022/06/22 07:27:36;;;;;;;;;18.67;17.33;;;;;;;;4882689;28;47707;-70
2022/06/22 07:30:10;;;;;;;;;23.33;19.67;;;;;;;;4876404;29;45410;-70
2022/06/22 07:32:43;;;;;;;;;18.00;16.67;;;;;;;;4885260;29;45463;-69
2022/06/22 07:35:47;;;;;;;;;23.33;20.00;;;;;;;;4899557;28;45523;-69
2022/06/22 07:38:12;;;;;;;;;22.00;20.67;;;;;;;;4876100;29;45366;-69
2022/06/22 07:40:39;;;;;;;;;22.33;20.00;;;;;;;;4875973;29;45470;-69
2022/06/22 07:43:04;;;;;;;;;19.00;17.00;;;;;;;;4876030;29;45407;-69
2022/06/22 07:45:30;;;;;;;;;17.33;17.33;;;;;;;;4894642;29;45307;-70
2022/06/22 07:48:01;;;;;;;;;22.33;20.67;;;;;;;;4876533;29;48060;-69
2022/06/22 07:50:29;;;;;;;;;23.00;19.00;;;;;;;;4882136;29;45414;-69
2022/06/22 07:52:58;;;;;;;;;19.67;17.33;;;;;;;;4879892;29;45485;-69
2022/06/22 07:55:31;;;;;;;;;22.33;18.00;;;;;;;;4897843;29;45513;-69
2022/06/22 07:58:14;;;;;;;;;15.67;15.67;;;;;;;;4898158;28;45437;-71
2022/06/22 08:00:41;;;;;;;;;21.67;18.00;;;;;;;;4904083;28;45502;-69
2022/06/22 08:03:25;;;;;;;;;17.00;16.33;;;;;;;;4896723;29;45899;-69
2022/06/22 08:05:51;;;;;;;;;18.67;17.00;;;;;;;;4903376;29;45799;-75
2022/06/22 08:08:18;;;;;;;;;17.00;17.00;;;;;;;;4896332;29;46271;-72
2022/06/22 08:10:49;;;;;;;;;19.33;18.00;;;;;;;;4902127;29;45483;-71
2022/06/22 08:13:19;;;;;;;;;20.67;18.67;;;;;;;;4898486;28;45356;-71
2022/06/22 08:16:11;;;;;;;;;19.33;17.33;;;;;;;;4902431;29;46486;-71
2022/06/22 08:18:36;;;;;;;;;16.67;16.00;;;;;;;;4899645;29;47926;-71
2022/06/22 08:21:02;;;;;;;;;23.67;21.33;;;;;;;;4901514;28;45448;-71
2022/06/22 08:23:31;;;;;;;;;19.67;18.33;;;;;;;;4898840;29;45411;-71
2022/06/22 08:25:57;;;;;;;;;17.33;15.67;;;;;;;;4902166;28;45373;-71
2022/06/22 08:28:24;;;;;;;;;16.00;15.00;;;;;;;;4896869;29;48456;-71
2022/06/22 08:30:51;;;;;;;;;18.33;16.33;;;;;;;;4901253;28;45459;-71
2022/06/22 08:33:22;;;;;;;;;20.33;18.33;;;;;;;;4894888;28;45287;-71
2022/06/22 08:35:50;;;;;;;;;16.00;15.00;;;;;;;;4903641;28;45590;-70
2022/06/22 08:38:20;;;;;;;;;19.33;19.33;;;;;;;;4883543;28;45746;-71
2022/06/22 08:40:53;;;;;;;;;16.67;16.67;;;;;;;;4902307;29;45395;-71
2022/06/22 08:43:32;;;;;;;;;18.00;16.00;;;;;;;;4887200;29;45319;-71
2022/06/22 08:46:12;;;;;;;;;22.00;17.67;;;;;;;;4901928;29;45569;-71
2022/06/22 08:48:56;;;;;;;;;18.00;16.00;;;;;;;;4896669;29;45361;-70
2022/06/22 08:51:31;;;;;;;;;17.67;17.33;;;;;;;;4899666;28;45463;-71
2022/06/22 08:54:15;;;;;;;;;16.00;15.00;;;;;;;;4900644;28;45494;-71
2022/06/22 08:56:40;;;;;;;;;16.67;15.33;;;;;;;;4894978;28;45354;-70
2022/06/22 08:59:05;;;;;;;;;14.67;13.67;;;;;;;;4899884;28;46068;-71
2022/06/22 09:01:40;;;;;;;;;15.75;15.00;;;;;;;;4897875;28;45443;-71
2022/06/22 09:04:15;;;;;;;;;14.75;13.75;;;;;;;;4889221;29;45260;-70
2022/06/22 09:06:49;;;;;;;;;20.25;15.25;;;;;;;;4892782;29;47195;-71
2022/06/22 09:09:34;;;;;;;;;18.25;15.50;;;;;;;;4888605;29;46978;-71
2022/06/22 09:12:05;;;;;;;;;17.25;16.50;;;;;;;;4878639;29;45257;-71
2022/06/22 09:14:51;;;;;;;;;17.75;14.50;;;;;;;;4889598;29;45214;-71
2022/06/22 09:17:33;;;;;;;;;22.25;18.75;;;;;;;;4886377;29;46014;-71
2022/06/22 09:20:09;;;;;;;;;17.25;15.50;;;;;;;;4892582;29;45373;-71
2022/06/22 09:22:43;;;;;;;;;16.75;15.25;;;;;;;;4884254;28;45226;-71
2022/06/22 09:25:08;;;;;;;;;14.50;14.50;;;;;;;;4899602;28;45470;-71
2022/06/22 09:27:39;;;;;;;;;15.50;13.00;;;;;;;;4891616;29;47238;-71
2022/06/22 09:30:23;;;;;;;;;12.00;11.75;;;;;;;;4887077;28;46618;-71
2022/06/22 09:33:08;;;;;;;;;13.50;12.75;;;;;;;;4889405;29;45425;-71
2022/06/22 09:35:40;;;;;;;;;20.00;16.75;;;;;;;;4888959;29;45303;-71
2022/06/22 09:38:06;;;;;;;;;15.00;13.75;;;;;;;;4895738;29;45567;-71
2022/06/22 09:40:54;;;;;;;;;15.50;13.75;;;;;;;;4896785;29;48462;-71
2022/06/22 09:43:40;;;;;;;;;17.40;14.40;;;;;;;;4879490;28;45265;-71
2022/06/22 09:46:24;;;;;;;;;19.00;16.75;;;;;;;;4889359;29;45256;-71
2022/06/22 09:49:14;;;;;;;;;21.00;17.00;;;;;;;;4882169;29;45561;-71
2022/06/22 09:51:57;;;;;;;;;19.75;16.50;;;;;;;;4881540;29;45595;-72
2022/06/22 09:57:27;;;;;;;;;15.00;15.00;;;;;;;;4883359;29;45668;-72
2022/06/22 10:00:01;;;;;;;;;19.50;17.25;;;;;;;;4900755;29;45533;-72
2022/06/22 10:02:45;;;;;;;;;14.80;13.40;;;;;;;;4887691;29;45593;-72
2022/06/22 10:05:13;;;;;;;;;14.00;14.00;;;;;;;;4889203;29;45399;-72
2022/06/22 10:08:08;;;;;;;;;16.00;13.80;;;;;;;;4897462;28;45498;-72
2022/06/22 10:10:33;;;;;;;;;15.25;15.25;;;;;;;;4878686;29;46237;-74
2022/06/22 10:13:11;;;;;;;;;17.50;15.50;;;;;;;;4880724;29;46167;-72
2022/06/22 10:15:44;;;;;;;;;12.40;12.20;;;;;;;;4888445;29;45307;-72
2022/06/22 10:18:15;;;;;;;;;15.60;13.60;;;;;;;;4886519;29;45392;-72
2022/06/22 10:20:40;;;;;;;;;15.80;13.40;;;;;;;;4899536;29;46122;-72
2022/06/22 10:23:05;;;;;;;;;16.25;14.50;;;;;;;;4893284;28;45429;-73
2022/06/22 10:25:31;;;;;;;;;17.00;13.50;;;;;;;;4898435;29;45683;-72
2022/06/22 10:27:56;;;;;;;;;12.25;12.25;;;;;;;;4886259;28;45334;-73
2022/06/22 10:30:39;;;;;;;;;16.00;16.00;;;;;;;;4884370;28;45341;-74
2022/06/22 10:33:04;;;;;;;;;15.00;14.00;;;;;;;;4889068;29;48092;-74
2022/06/22 10:35:48;;;;;;;;;16.75;15.50;;;;;;;;4895054;29;45324;-74
2022/06/22 10:38:29;;;;;;;;;13.60;13.60;;;;;;;;4894579;29;45424;-71
2022/06/22 10:46:55;;;;;;;;;13.60;12.60;;;;;;;;4884992;29;45232;-73
2022/06/22 10:49:39;;;;;;;;;15.25;14.00;;;;;;;;4890479;29;45228;-72
2022/06/22 10:52:15;;;;;;;;;15.50;14.75;;;;;;;;4889163;29;45584;-72
2022/06/22 10:54:59;;;;;;;;;14.50;14.50;;;;;;;;4889914;29;47528;-72
2022/06/22 10:57:43;;;;;;;;;15.60;15.00;;;;;;;;4872226;29;45233;-72
2022/06/22 11:00:14;;;;;;;;;15.00;14.25;;;;;;;;4883651;29;45293;-72
2022/06/22 11:02:45;;;;;;;;;16.75;16.00;;;;;;;;4893076;28;46252;-73
2022/06/22 11:05:29;;;;;;;;;19.50;18.00;;;;;;;;4900779;28;45641;-73
2022/06/22 11:08:04;;;;;;;;;17.25;16.00;;;;;;;;4892962;28;45291;-72
2022/06/22 11:10:32;;;;;;;;;17.25;16.25;;;;;;;;4900798;29;45237;-72
2022/06/22 11:12:58;;;;;;;;;17.50;17.50;;;;;;;;4890067;28;46793;-72
2022/06/22 11:15:37;;;;;;;;;22.00;20.00;;;;;;;;4892005;28;45367;-73
2022/06/22 11:18:21;;;;;;;;;19.75;19.75;;;;;;;;4896231;28;45405;-73
2022/06/22 11:21:01;;;;;;;;;19.25;17.75;;;;;;;;4901682;28;45446;-73
2022/06/22 11:23:35;;;;;;;;;20.00;16.00;;;;;;;;4883137;29;45230;-72
2022/06/22 11:32:02;;;;;;;;;21.75;21.00;;;;;;;;4889838;29;45369;-73
2022/06/22 11:34:40;;;;;;;;;17.75;16.25;;;;;;;;4884525;29;45453;-73
2022/06/22 11:37:24;;;;;;;;;22.25;19.50;;;;;;;;4885663;29;47173;-72
2022/06/22 11:40:02;;;;;;;;;19.75;16.25;;;;;;;;4887025;28;45352;-73
2022/06/22 11:42:46;;;;;;;;;17.75;15.25;;;;;;;;4890220;29;45538;-72
2022/06/22 11:45:56;;;;;;;;;19.00;18.00;;;;;;;;4890568;29;45285;-73
2022/06/22 11:48:21;;;;;;;;;20.00;18.25;;;;;;;;4882049;29;47940;-72
2022/06/22 11:50:46;;;;;;;;;19.25;17.50;;;;;;;;4900444;28;45446;-73
2022/06/22 11:53:21;;;;;;;;;15.25;15.25;;;;;;;;4885460;28;45543;-72
2022/06/22 11:55:51;;;;;;;;;17.50;16.00;;;;;;;;4885805;29;45214;-73
2022/06/22 11:58:37;;;;;;;;;16.00;15.50;;;;;;;;4876668;28;46224;-73
2022/06/22 12:01:15;;;;;;;;;14.40;14.00;;;;;;;;4885481;29;45232;-73
2022/06/22 12:03:59;;;;;;;;;17.25;16.25;;;;;;;;4876468;29;45459;-73
2022/06/22 12:06:37;;;;;;;;;15.40;15.20;;;;;;;;4885743;29;45888;-73
2022/06/22 12:09:05;;;;;;;;;21.20;19.00;;;;;;;;4874498;29;45843;-73
2022/06/22 12:11:43;;;;;;;;;17.00;16.60;;;;;;;;4896618;28;45617;-73
2022/06/22 12:16:57;;;;;;;;;17.75;15.00;;;;;;;;4882861;29;45266;-73
2022/06/22 12:19:45;;;;;;;;;15.00;14.00;;;;;;;;4887079;29;46552;-73
2022/06/22 12:22:28;;;;;;;;;14.60;13.40;;;;;;;;4880983;29;45369;-73
2022/06/22 12:24:55;;;;;;;;;17.25;15.50;;;;;;;;4882255;29;45603;-73
2022/06/22 12:27:20;;;;;;;;;14.25;13.50;;;;;;;;4885506;29;45376;-73
2022/06/22 12:29:55;;;;;;;;;15.00;13.00;;;;;;;;4888259;28;45517;-72
2022/06/22 12:32:23;;;;;;;;;18.20;14.20;;;;;;;;4882170;29;45464;-74
2022/06/22 12:34:51;;;;;;;;;16.75;13.75;;;;;;;;4890436;28;45265;-73
2022/06/22 12:37:23;;;;;;;;;19.25;16.00;;;;;;;;4888495;29;47093;-73
2022/06/22 12:39:52;;;;;;;;;18.25;16.75;;;;;;;;4897729;29;47506;-73
2022/06/22 12:42:32;;;;;;;;;14.40;14.40;;;;;;;;4892481;28;45504;-73
2022/06/22 12:45:10;;;;;;;;;14.25;14.25;;;;;;;;4898141;29;45305;-73
2022/06/22 12:47:35;;;;;;;;;18.00;17.00;;;;;;;;4885266;29;46962;-73
2022/06/22 12:50:19;;;;;;;;;17.50;14.25;;;;;;;;4895695;29;45437;-73
2022/06/22 12:53:07;;;;;;;;;15.75;14.50;;;;;;;;4886072;29;45720;-73
2022/06/22 12:55:36;;;;;;;;;16.25;15.25;;;;;;;;4881299;29;45339;-73
2022/06/22 12:58:04;;;;;;;;;16.00;14.25;;;;;;;;4877026;29;45484;-73
2022/06/22 13:00:30;;;;;;;;;13.25;13.25;;;;;;;;4903775;28;47392;-73
2022/06/22 13:02:59;;;;;;;;;17.75;16.00;;;;;;;;4876873;29;45335;-73
2022/06/22 13:05:31;;;;;;;;;13.00;13.00;;;;;;;;4888884;29;45379;-73
2022/06/22 13:08:08;;;;;;;;;15.00;15.00;;;;;;;;4881524;29;45419;-73
2022/06/22 13:10:35;;;;;;;;;16.25;15.25;;;;;;;;4886859;29;45449;-73
2022/06/22 13:13:05;;;;;;;;;14.00;14.00;;;;;;;;4885497;29;45267;-73
2022/06/22 13:15:36;;;;;;;;;16.25;15.25;;;;;;;;4893501;28;45205;-73
2022/06/22 13:18:01;;;;;;;;;15.75;14.00;;;;;;;;4883562;29;45798;-73
2022/06/22 13:20:39;;;;;;;;;17.00;14.75;;;;;;;;4900906;29;47721;-73
2022/06/22 13:23:04;;;;;;;;;15.75;14.25;;;;;;;;4883764;28;45482;-73
2022/06/22 13:25:48;;;;;;;;;16.00;12.50;;;;;;;;4890483;28;45391;-73
2022/06/22 13:28:23;;;;;;;;;18.00;16.00;;;;;;;;4890070;28;46884;-73
2022/06/22 13:30:55;;;;;;;;;13.00;11.75;;;;;;;;4882767;29;46709;-73
2022/06/22 13:33:39;;;;;;;;;13.50;13.50;;;;;;;;4878184;29;45438;-73
2022/06/22 13:36:15;;;;;;;;;18.75;15.25;;;;;;;;4899234;29;45344;-73
2022/06/22 13:39:03;;;;;;;;;15.25;15.25;;;;;;;;4874516;29;46259;-72
2022/06/22 13:41:47;;;;;;;;;16.75;15.00;;;;;;;;4888077;29;45663;-73
2022/06/22 13:44:12;;;;;;;;;15.40;15.40;;;;;;;;4890839;29;45385;-73
2022/06/22 13:46:46;;;;;;;;;15.00;13.25;;;;;;;;4888880;28;45228;-74
2022/06/22 13:49:17;;;;;;;;;15.00;13.50;;;;;;;;4886744;29;45247;-73
2022/06/22 13:52:14;;;;;;;;;16.80;15.60;;;;;;;;4894466;29;46412;-73
2022/06/22 13:54:46;;;;;;;;;14.60;12.80;;;;;;;;4887442;29;45523;-73
2022/06/22 13:57:17;;;;;;;;;15.50;13.00;;;;;;;;4885647;29;45369;-74
2022/06/22 13:59:56;;;;;;;;;12.60;8.80;;;;;;;;4879244;29;45527;-73
2022/06/22 14:02:28;;;;;;;;;15.40;14.60;;;;;;;;4873473;29;45446;-74
2022/06/22 14:05:10;;;;;;;;;13.80;12.20;;;;;;;;4885621;29;45360;-74
2022/06/22 14:07:45;;;;;;;;;13.40;12.20;;;;;;;;4872693;29;45466;-73
2022/06/22 14:10:36;;;;;;;;;12.50;11.00;;;;;;;;4901978;28;45510;-73
2022/06/22 14:13:07;;;;;;;;;15.40;13.00;;;;;;;;4879768;29;46407;-73
2022/06/22 14:15:41;;;;;;;;;14.60;11.80;;;;;;;;4889213;29;45318;-74
2022/06/22 14:18:20;;;;;;;;;13.00;12.50;;;;;;;;4888799;29;46080;-73
2022/06/22 14:21:09;;;;;;;;;13.20;12.20;;;;;;;;4891535;29;46048;-73
2022/06/22 14:23:36;;;;;;;;;13.20;13.20;;;;;;;;4887270;29;45434;-73
2022/06/22 14:26:13;;;;;;;;;16.40;14.60;;;;;;;;4898480;29;45402;-74
2022/06/22 14:28:44;;;;;;;;;17.25;16.00;;;;;;;;4894077;29;45252;-73
2022/06/22 14:31:13;;;;;;;;;15.00;15.00;;;;;;;;4881891;29;47284;-73
2022/06/22 14:33:52;;;;;;;;;13.40;13.40;;;;;;;;4877445;29;45290;-74
2022/06/22 14:36:29;;;;;;;;;13.60;12.60;;;;;;;;4888247;29;45442;-72
2022/06/22 14:38:58;;;;;;;;;15.00;14.50;;;;;;;;4885239;29;46085;-73
2022/06/22 14:41:32;;;;;;;;;14.25;11.25;;;;;;;;4895129;28;45308;-73
2022/06/22 14:44:06;;;;;;;;;11.40;11.20;;;;;;;;4898821;28;46996;-73
2022/06/22 14:46:34;;;;;;;;;13.60;13.60;;;;;;;;4890152;28;45228;-73
2022/06/22 14:49:19;;;;;;;;;12.60;12.60;;;;;;;;4877632;29;45502;-73
2022/06/22 14:51:48;;;;;;;;;15.00;13.75;;;;;;;;4884853;29;45470;-73
2022/06/22 14:54:19;;;;;;;;;10.80;9.60;;;;;;;;4879625;28;45624;-73
2022/06/22 14:56:50;;;;;;;;;12.40;11.40;;;;;;;;4889239;29;45370;-73
2022/06/22 14:59:21;;;;;;;;;13.00;13.00;;;;;;;;4887649;29;45323;-73
2022/06/22 15:01:55;;;;;;;;;14.50;13.75;;;;;;;;4892117;29;45393;-73
2022/06/22 15:04:27;;;;;;;;;10.75;10.75;;;;;;;;4882792;29;45400;-73
2022/06/22 15:06:56;;;;;;;;;13.40;11.60;;;;;;;;4889272;29;45246;-73
2022/06/22 15:09:26;;;;;;;;;13.25;13.00;;;;;;;;4887817;29;45413;-73
2022/06/22 15:14:53;;;;;;;;;8.00;8.00;;;;;;;;4893314;29;46206;-73
2022/06/22 15:17:25;;;;;;;;;12.60;11.60;;;;;;;;4882714;29;45463;-73